sensor_id;sensor_type;location;lat;lon;timestamp;temperature;humidity
11142;DHT22;5625;50.122;19.864;2022-08-19T00:01:58;23.50;99.90
11142;DHT22;5625;50.122;19.864;2022-08-19T00:04:30;23.50;99.90
11142;DHT22;5625;50.122;19.864;2022-08-19T00:06:58;23.50;99.90
11142;DHT22;5625;50.122;19.864;2022-08-19T00:09:27;23.50;99.90
11142;DHT22;5625;50.122;19.864;2022-08-19T00:12:18;23.40;99.90
11142;DHT22;5625;50.122;19.864;2022-08-19T00:14:46;23.40;99.90
11142;DHT22;5625;50.122;19.864;2022-08-19T00:17:14;23.40;99.90
11142;DHT22;5625;50.122;19.864;2022-08-19T00:19:42;23.40;99.90
11142;DHT22;5625;50.122;19.864;2022-08-19T00:22:10;23.40;99.90
11142;DHT22;5625;50.122;19.864;2022-08-19T00:24:38;23.40;99.90
11142;DHT22;5625;50.122;19.864;2022-08-19T00:27:16;23.40;99.90
11142;DHT22;5625;50.122;19.864;2022-08-19T00:29:54;23.30;99.90
11142;DHT22;5625;50.122;19.864;2022-08-19T00:32:22;23.30;99.90
11142;DHT22;5625;50.122;19.864;2022-08-19T00:34:50;23.30;99.90
11142;DHT22;5625;50.122;19.864;2022-08-19T00:37:20;23.30;99.90
11142;DHT22;5625;50.122;19.864;2022-08-19T00:39:49;23.30;99.90
11142;DHT22;5625;50.122;19.864;2022-08-19T00:42:19;23.20;99.90
11142;DHT22;5625;50.122;19.864;2022-08-19T00:44:48;23.20;99.90
11142;DHT22;5625;50.122;19.864;2022-08-19T00:47:18;23.10;99.90
11142;DHT22;5625;50.122;19.864;2022-08-19T00:50:05;23.10;99.90
11142;DHT22;5625;50.122;19.864;2022-08-19T00:53:03;23.10;99.90
11142;DHT22;5625;50.122;19.864;2022-08-19T00:55:33;23.10;99.90
11142;DHT22;5625;50.122;19.864;2022-08-19T00:58:06;23.10;99.90
11142;DHT22;5625;50.122;19.864;2022-08-19T01:00:35;23.10;99.90
11142;DHT22;5625;50.122;19.864;2022-08-19T01:03:08;23.00;99.90
11142;DHT22;5625;50.122;19.864;2022-08-19T01:05:37;23.00;99.90
11142;DHT22;5625;50.122;19.864;2022-08-19T01:08:07;23.00;99.90
11142;DHT22;5625;50.122;19.864;2022-08-19T01:10:40;23.00;99.90
11142;DHT22;5625;50.122;19.864;2022-08-19T01:13:09;22.90;99.90
11142;DHT22;5625;50.122;19.864;2022-08-19T01:15:40;22.90;99.90
11142;DHT22;5625;50.122;19.864;2022-08-19T01:18:14;22.90;99.90
11142;DHT22;5625;50.122;19.864;2022-08-19T01:20:43;22.80;99.90
11142;DHT22;5625;50.122;19.864;2022-08-19T01:23:14;22.80;99.90
11142;DHT22;5625;50.122;19.864;2022-08-19T01:25:46;22.80;99.90
11142;DHT22;5625;50.122;19.864;2022-08-19T01:28:20;22.80;99.90
11142;DHT22;5625;50.122;19.864;2022-08-19T01:31:06;22.70;99.90
11142;DHT22;5625;50.122;19.864;2022-08-19T01:33:35;22.70;99.90
11142;DHT22;5625;50.122;19.864;2022-08-19T01:36:05;22.70;99.90
11142;DHT22;5625;50.122;19.864;2022-08-19T01:38:37;22.70;99.90
11142;DHT22;5625;50.122;19.864;2022-08-19T01:41:11;22.70;99.90
11142;DHT22;5625;50.122;19.864;2022-08-19T01:43:39;22.70;99.90
11142;DHT22;5625;50.122;19.864;2022-08-19T01:46:27;22.70;99.90
11142;DHT22;5625;50.122;19.864;2022-08-19T01:48:55;22.60;99.90
11142;DHT22;5625;50.122;19.864;2022-08-19T01:51:24;22.60;99.90
11142;DHT22;5625;50.122;19.864;2022-08-19T01:53:54;22.60;99.90
11142;DHT22;5625;50.122;19.864;2022-08-19T01:56:23;22.50;99.90
11142;DHT22;5625;50.122;19.864;2022-08-19T01:58:55;22.60;99.90
11142;DHT22;5625;50.122;19.864;2022-08-19T02:01:24;22.60;99.90
11142;DHT22;5625;50.122;19.864;2022-08-19T02:03:57;22.60;99.90
11142;DHT22;5625;50.122;19.864;2022-08-19T02:06:25;22.50;99.90
11142;DHT22;5625;50.122;19.864;2022-08-19T02:08:54;22.50;99.90
11142;DHT22;5625;50.122;19.864;2022-08-19T02:11:25;22.50;99.90
11142;DHT22;5625;50.122;19.864;2022-08-19T02:13:55;22.50;99.90
11142;DHT22;5625;50.122;19.864;2022-08-19T02:16:23;22.50;99.90
11142;DHT22;5625;50.122;19.864;2022-08-19T02:18:51;22.40;99.90
11142;DHT22;5625;50.122;19.864;2022-08-19T02:21:21;22.40;99.90
11142;DHT22;5625;50.122;19.864;2022-08-19T02:23:50;22.40;99.90
11142;DHT22;5625;50.122;19.864;2022-08-19T02:26:20;22.40;99.90
11142;DHT22;5625;50.122;19.864;2022-08-19T02:28:48;22.30;99.90
11142;DHT22;5625;50.122;19.864;2022-08-19T02:31:19;22.30;99.90
11142;DHT22;5625;50.122;19.864;2022-08-19T02:33:52;22.30;99.90
11142;DHT22;5625;50.122;19.864;2022-08-19T02:36:23;22.30;99.90
11142;DHT22;5625;50.122;19.864;2022-08-19T02:38:52;22.20;99.90
11142;DHT22;5625;50.122;19.864;2022-08-19T02:41:24;22.20;99.90
11142;DHT22;5625;50.122;19.864;2022-08-19T02:43:53;22.20;99.90
11142;DHT22;5625;50.122;19.864;2022-08-19T02:46:42;22.20;99.90
11142;DHT22;5625;50.122;19.864;2022-08-19T02:49:11;22.20;99.90
11142;DHT22;5625;50.122;19.864;2022-08-19T02:51:44;22.10;99.90
11142;DHT22;5625;50.122;19.864;2022-08-19T02:54:14;22.10;99.90
11142;DHT22;5625;50.122;19.864;2022-08-19T02:56:44;22.10;99.90
11142;DHT22;5625;50.122;19.864;2022-08-19T02:59:12;22.10;99.90
11142;DHT22;5625;50.122;19.864;2022-08-19T03:01:41;22.10;99.90
11142;DHT22;5625;50.122;19.864;2022-08-19T03:04:14;22.10;99.90
11142;DHT22;5625;50.122;19.864;2022-08-19T03:06:44;22.10;99.90
11142;DHT22;5625;50.122;19.864;2022-08-19T03:09:13;22.10;99.90
11142;DHT22;5625;50.122;19.864;2022-08-19T03:11:43;22.10;99.90
11142;DHT22;5625;50.122;19.864;2022-08-19T03:14:15;22.10;99.90
11142;DHT22;5625;50.122;19.864;2022-08-19T03:16:47;22.00;99.90
11142;DHT22;5625;50.122;19.864;2022-08-19T03:19:17;22.00;99.90
11142;DHT22;5625;50.122;19.864;2022-08-19T03:21:45;22.00;99.90
11142;DHT22;5625;50.122;19.864;2022-08-19T03:24:14;21.90;99.90
11142;DHT22;5625;50.122;19.864;2022-08-19T03:26:48;22.00;99.90
11142;DHT22;5625;50.122;19.864;2022-08-19T03:29:16;21.90;99.90
11142;DHT22;5625;50.122;19.864;2022-08-19T03:31:57;21.90;99.90
11142;DHT22;5625;50.122;19.864;2022-08-19T03:34:29;21.90;99.90
11142;DHT22;5625;50.122;19.864;2022-08-19T03:37:01;21.80;99.90
11142;DHT22;5625;50.122;19.864;2022-08-19T03:39:30;21.80;99.90
11142;DHT22;5625;50.122;19.864;2022-08-19T03:41:59;21.80;99.90
11142;DHT22;5625;50.122;19.864;2022-08-19T03:44:49;21.80;99.90
11142;DHT22;5625;50.122;19.864;2022-08-19T03:47:17;21.80;99.90
11142;DHT22;5625;50.122;19.864;2022-08-19T03:49:45;21.70;99.90
11142;DHT22;5625;50.122;19.864;2022-08-19T03:52:13;21.70;99.90
11142;DHT22;5625;50.122;19.864;2022-08-19T03:54:42;21.70;99.90
11142;DHT22;5625;50.122;19.864;2022-08-19T03:57:11;21.80;99.90
11142;DHT22;5625;50.122;19.864;2022-08-19T03:59:39;21.80;99.90
11142;DHT22;5625;50.122;19.864;2022-08-19T04:02:10;21.80;99.90
11142;DHT22;5625;50.122;19.864;2022-08-19T04:04:41;21.80;99.90
11142;DHT22;5625;50.122;19.864;2022-08-19T04:07:11;21.80;99.90
11142;DHT22;5625;50.122;19.864;2022-08-19T04:09:40;21.80;99.90
11142;DHT22;5625;50.122;19.864;2022-08-19T04:12:08;21.80;99.90
11142;DHT22;5625;50.122;19.864;2022-08-19T04:14:37;21.80;99.90
11142;DHT22;5625;50.122;19.864;2022-08-19T04:17:06;21.70;99.90
11142;DHT22;5625;50.122;19.864;2022-08-19T04:19:35;21.70;99.90
11142;DHT22;5625;50.122;19.864;2022-08-19T04:22:04;21.80;99.90
11142;DHT22;5625;50.122;19.864;2022-08-19T04:24:35;21.80;99.90
11142;DHT22;5625;50.122;19.864;2022-08-19T04:27:04;21.70;99.90
11142;DHT22;5625;50.122;19.864;2022-08-19T04:29:33;21.80;99.90
11142;DHT22;5625;50.122;19.864;2022-08-19T04:32:02;21.80;99.90
11142;DHT22;5625;50.122;19.864;2022-08-19T04:34:35;21.70;99.90
11142;DHT22;5625;50.122;19.864;2022-08-19T04:37:23;21.80;99.90
11142;DHT22;5625;50.122;19.864;2022-08-19T04:39:57;21.70;99.90
11142;DHT22;5625;50.122;19.864;2022-08-19T04:42:43;21.80;99.90
11142;DHT22;5625;50.122;19.864;2022-08-19T04:45:14;21.90;99.90
11142;DHT22;5625;50.122;19.864;2022-08-19T04:47:44;21.90;99.90
11142;DHT22;5625;50.122;19.864;2022-08-19T04:50:32;21.90;99.90
11142;DHT22;5625;50.122;19.864;2022-08-19T04:53:00;22.00;99.90
11142;DHT22;5625;50.122;19.864;2022-08-19T04:55:28;22.10;99.90
11142;DHT22;5625;50.122;19.864;2022-08-19T04:58:02;22.20;99.90
11142;DHT22;5625;50.122;19.864;2022-08-19T05:00:30;22.20;99.90
11142;DHT22;5625;50.122;19.864;2022-08-19T05:03:04;22.30;99.90
11142;DHT22;5625;50.122;19.864;2022-08-19T05:05:33;22.50;99.90
11142;DHT22;5625;50.122;19.864;2022-08-19T05:08:11;22.60;99.90
11142;DHT22;5625;50.122;19.864;2022-08-19T05:10:41;22.70;99.90
11142;DHT22;5625;50.122;19.864;2022-08-19T05:13:09;22.90;99.90
11142;DHT22;5625;50.122;19.864;2022-08-19T05:15:38;22.90;99.90
11142;DHT22;5625;50.122;19.864;2022-08-19T05:18:07;23.00;99.90
11142;DHT22;5625;50.122;19.864;2022-08-19T05:20:53;23.00;99.90
11142;DHT22;5625;50.122;19.864;2022-08-19T05:23:41;23.10;99.90
11142;DHT22;5625;50.122;19.864;2022-08-19T05:26:11;23.10;99.90
11142;DHT22;5625;50.122;19.864;2022-08-19T05:28:39;23.20;99.90
11142;DHT22;5625;50.122;19.864;2022-08-19T05:31:07;23.40;99.90
11142;DHT22;5625;50.122;19.864;2022-08-19T05:33:36;23.50;99.90
11142;DHT22;5625;50.122;19.864;2022-08-19T05:36:09;23.70;99.90
11142;DHT22;5625;50.122;19.864;2022-08-19T05:38:37;23.80;99.90
11142;DHT22;5625;50.122;19.864;2022-08-19T05:41:07;23.80;99.90
11142;DHT22;5625;50.122;19.864;2022-08-19T05:43:36;24.10;99.90
11142;DHT22;5625;50.122;19.864;2022-08-19T05:46:05;24.40;99.90
11142;DHT22;5625;50.122;19.864;2022-08-19T05:48:34;24.80;99.90
11142;DHT22;5625;50.122;19.864;2022-08-19T05:51:08;25.00;99.90
11142;DHT22;5625;50.122;19.864;2022-08-19T05:53:37;25.10;99.90
11142;DHT22;5625;50.122;19.864;2022-08-19T05:56:06;25.10;99.90
11142;DHT22;5625;50.122;19.864;2022-08-19T05:58:34;25.30;99.90
11142;DHT22;5625;50.122;19.864;2022-08-19T06:01:04;25.50;99.90
11142;DHT22;5625;50.122;19.864;2022-08-19T06:03:35;25.60;99.90
11142;DHT22;5625;50.122;19.864;2022-08-19T06:06:06;25.80;99.90
11142;DHT22;5625;50.122;19.864;2022-08-19T06:08:36;25.90;99.90
11142;DHT22;5625;50.122;19.864;2022-08-19T06:11:16;26.10;99.90
11142;DHT22;5625;50.122;19.864;2022-08-19T06:13:49;26.50;1.00
11142;DHT22;5625;50.122;19.864;2022-08-19T06:16:25;26.80;1.00
11142;DHT22;5625;50.122;19.864;2022-08-19T06:18:54;27.10;99.90
11142;DHT22;5625;50.122;19.864;2022-08-19T06:21:27;27.30;99.90
11142;DHT22;5625;50.122;19.864;2022-08-19T06:23:57;27.50;99.90
11142;DHT22;5625;50.122;19.864;2022-08-19T06:26:26;27.70;99.90
11142;DHT22;5625;50.122;19.864;2022-08-19T06:28:55;27.90;99.90
11142;DHT22;5625;50.122;19.864;2022-08-19T06:31:25;28.20;99.90
11142;DHT22;5625;50.122;19.864;2022-08-19T06:33:54;28.50;99.90
11142;DHT22;5625;50.122;19.864;2022-08-19T06:36:25;28.80;99.90
11142;DHT22;5625;50.122;19.864;2022-08-19T06:38:59;29.10;99.90
11142;DHT22;5625;50.122;19.864;2022-08-19T06:41:28;29.20;99.90
11142;DHT22;5625;50.122;19.864;2022-08-19T06:43:57;29.40;99.90
11142;DHT22;5625;50.122;19.864;2022-08-19T06:46:25;29.70;99.90
11142;DHT22;5625;50.122;19.864;2022-08-19T06:49:00;30.10;99.90
11142;DHT22;5625;50.122;19.864;2022-08-19T06:51:30;30.20;99.90
11142;DHT22;5625;50.122;19.864;2022-08-19T06:54:04;30.50;99.90
11142;DHT22;5625;50.122;19.864;2022-08-19T06:56:45;30.80;99.90
11142;DHT22;5625;50.122;19.864;2022-08-19T06:59:16;31.00;92.60
11142;DHT22;5625;50.122;19.864;2022-08-19T07:01:46;31.40;59.60
11142;DHT22;5625;50.122;19.864;2022-08-19T07:04:17;31.80;4.00
11142;DHT22;5625;50.122;19.864;2022-08-19T07:06:48;32.10;1.00
11142;DHT22;5625;50.122;19.864;2022-08-19T07:09:21;32.30;1.00
11142;DHT22;5625;50.122;19.864;2022-08-19T07:11:50;32.50;1.00
11142;DHT22;5625;50.122;19.864;2022-08-19T07:14:23;32.70;1.00
11142;DHT22;5625;50.122;19.864;2022-08-19T07:16:53;33.10;1.00
11142;DHT22;5625;50.122;19.864;2022-08-19T07:19:23;33.40;1.00
11142;DHT22;5625;50.122;19.864;2022-08-19T07:21:54;33.40;99.90
11142;DHT22;5625;50.122;19.864;2022-08-19T07:24:24;33.50;99.90
11142;DHT22;5625;50.122;19.864;2022-08-19T07:26:59;33.40;99.90
11142;DHT22;5625;50.122;19.864;2022-08-19T07:29:34;33.40;99.90
11142;DHT22;5625;50.122;19.864;2022-08-19T07:32:04;33.50;99.90
11142;DHT22;5625;50.122;19.864;2022-08-19T07:34:37;33.60;99.90
11142;DHT22;5625;50.122;19.864;2022-08-19T07:37:07;34.10;19.00
11142;DHT22;5625;50.122;19.864;2022-08-19T07:39:36;34.40;1.00
11142;DHT22;5625;50.122;19.864;2022-08-19T07:42:08;34.30;1.00
11142;DHT22;5625;50.122;19.864;2022-08-19T07:44:40;34.80;99.90
11142;DHT22;5625;50.122;19.864;2022-08-19T07:47:16;34.70;99.90
11142;DHT22;5625;50.122;19.864;2022-08-19T07:50:07;35.20;99.90
11142;DHT22;5625;50.122;19.864;2022-08-19T07:52:37;35.50;1.00
11142;DHT22;5625;50.122;19.864;2022-08-19T07:55:09;35.50;1.00
11142;DHT22;5625;50.122;19.864;2022-08-19T07:57:57;35.60;1.00
11142;DHT22;5625;50.122;19.864;2022-08-19T08:00:26;35.50;99.90
11142;DHT22;5625;50.122;19.864;2022-08-19T08:02:54;35.50;99.90
11142;DHT22;5625;50.122;19.864;2022-08-19T08:05:22;35.60;99.90
11142;DHT22;5625;50.122;19.864;2022-08-19T08:08:11;35.90;99.90
11142;DHT22;5625;50.122;19.864;2022-08-19T08:10:58;36.30;75.40
11142;DHT22;5625;50.122;19.864;2022-08-19T08:13:26;36.50;1.00
11142;DHT22;5625;50.122;19.864;2022-08-19T08:15:55;36.70;1.00
11142;DHT22;5625;50.122;19.864;2022-08-19T08:18:24;37.10;1.00
11142;DHT22;5625;50.122;19.864;2022-08-19T08:20:57;37.20;1.00
11142;DHT22;5625;50.122;19.864;2022-08-19T08:23:27;36.90;99.90
11142;DHT22;5625;50.122;19.864;2022-08-19T08:25:57;37.10;99.90
11142;DHT22;5625;50.122;19.864;2022-08-19T08:28:26;37.40;99.90
11142;DHT22;5625;50.122;19.864;2022-08-19T08:30:57;37.50;99.90
11142;DHT22;5625;50.122;19.864;2022-08-19T08:33:28;37.50;99.90
11142;DHT22;5625;50.122;19.864;2022-08-19T08:36:01;38.00;99.90
11142;DHT22;5625;50.122;19.864;2022-08-19T08:38:31;38.20;93.40
11142;DHT22;5625;50.122;19.864;2022-08-19T08:41:11;38.30;13.90
11142;DHT22;5625;50.122;19.864;2022-08-19T08:43:47;38.10;1.00
11142;DHT22;5625;50.122;19.864;2022-08-19T08:46:19;38.40;1.00
11142;DHT22;5625;50.122;19.864;2022-08-19T08:49:02;38.60;1.00
11142;DHT22;5625;50.122;19.864;2022-08-19T08:51:34;38.90;1.00
11142;DHT22;5625;50.122;19.864;2022-08-19T08:54:08;38.90;1.00
11142;DHT22;5625;50.122;19.864;2022-08-19T08:56:38;38.50;99.90
11142;DHT22;5625;50.122;19.864;2022-08-19T08:59:10;38.70;99.90
11142;DHT22;5625;50.122;19.864;2022-08-19T09:01:40;38.80;99.90
11142;DHT22;5625;50.122;19.864;2022-08-19T09:04:08;38.90;99.90
11142;DHT22;5625;50.122;19.864;2022-08-19T09:06:46;39.30;99.90
11142;DHT22;5625;50.122;19.864;2022-08-19T09:09:20;39.50;99.90
11142;DHT22;5625;50.122;19.864;2022-08-19T09:11:58;39.10;99.90
11142;DHT22;5625;50.122;19.864;2022-08-19T09:14:36;39.30;99.90
11142;DHT22;5625;50.122;19.864;2022-08-19T09:17:20;39.40;99.90
11142;DHT22;5625;50.122;19.864;2022-08-19T09:20:00;39.40;99.90
11142;DHT22;5625;50.122;19.864;2022-08-19T09:22:36;39.50;99.90
11142;DHT22;5625;50.122;19.864;2022-08-19T09:25:08;39.90;99.90
11142;DHT22;5625;50.122;19.864;2022-08-19T09:27:39;39.70;95.30
11142;DHT22;5625;50.122;19.864;2022-08-19T09:30:13;39.40;75.00
11142;DHT22;5625;50.122;19.864;2022-08-19T09:32:42;39.30;23.10
11142;DHT22;5625;50.122;19.864;2022-08-19T09:35:11;39.60;28.00
11142;DHT22;5625;50.122;19.864;2022-08-19T09:37:41;39.20;1.90
11142;DHT22;5625;50.122;19.864;2022-08-19T09:40:12;39.50;1.00
11142;DHT22;5625;50.122;19.864;2022-08-19T09:42:41;39.50;1.00
11142;DHT22;5625;50.122;19.864;2022-08-19T09:45:21;39.70;1.00
11142;DHT22;5625;50.122;19.864;2022-08-19T09:47:51;40.00;1.00
11142;DHT22;5625;50.122;19.864;2022-08-19T09:50:22;39.60;1.00
11142;DHT22;5625;50.122;19.864;2022-08-19T09:52:51;39.70;1.00
11142;DHT22;5625;50.122;19.864;2022-08-19T09:55:26;39.90;1.00
11142;DHT22;5625;50.122;19.864;2022-08-19T09:57:59;40.00;1.00
11142;DHT22;5625;50.122;19.864;2022-08-19T10:00:27;39.70;1.00
11142;DHT22;5625;50.122;19.864;2022-08-19T10:02:55;39.70;99.90
11142;DHT22;5625;50.122;19.864;2022-08-19T10:05:23;39.70;99.90
11142;DHT22;5625;50.122;19.864;2022-08-19T10:08:09;40.10;99.90
11142;DHT22;5625;50.122;19.864;2022-08-19T10:10:41;40.00;99.90
11142;DHT22;5625;50.122;19.864;2022-08-19T10:13:13;40.10;99.90
11142;DHT22;5625;50.122;19.864;2022-08-19T10:15:42;39.90;99.90
11142;DHT22;5625;50.122;19.864;2022-08-19T10:18:14;39.70;99.90
11142;DHT22;5625;50.122;19.864;2022-08-19T10:20:43;39.80;99.90
11142;DHT22;5625;50.122;19.864;2022-08-19T10:23:18;40.10;99.90
11142;DHT22;5625;50.122;19.864;2022-08-19T10:25:49;40.20;99.90
11142;DHT22;5625;50.122;19.864;2022-08-19T10:28:20;40.10;99.90
11142;DHT22;5625;50.122;19.864;2022-08-19T10:30:49;39.90;99.90
11142;DHT22;5625;50.122;19.864;2022-08-19T10:33:17;40.00;99.90
11142;DHT22;5625;50.122;19.864;2022-08-19T10:36:08;40.20;99.90
11142;DHT22;5625;50.122;19.864;2022-08-19T10:38:37;39.90;95.60
11142;DHT22;5625;50.122;19.864;2022-08-19T10:41:21;39.90;58.60
11142;DHT22;5625;50.122;19.864;2022-08-19T10:43:50;39.60;68.60
11142;DHT22;5625;50.122;19.864;2022-08-19T10:46:30;39.20;15.90
11142;DHT22;5625;50.122;19.864;2022-08-19T10:49:00;39.20;60.00
11142;DHT22;5625;50.122;19.864;2022-08-19T10:51:28;39.10;50.50
11142;DHT22;5625;50.122;19.864;2022-08-19T10:54:15;39.20;72.00
11142;DHT22;5625;50.122;19.864;2022-08-19T10:56:59;39.40;33.60
11142;DHT22;5625;50.122;19.864;2022-08-19T10:59:28;39.40;5.60
11142;DHT22;5625;50.122;19.864;2022-08-19T11:02:04;39.30;4.00
11142;DHT22;5625;50.122;19.864;2022-08-19T11:04:33;39.70;3.30
11142;DHT22;5625;50.122;19.864;2022-08-19T11:07:01;39.90;14.40
11142;DHT22;5625;50.122;19.864;2022-08-19T11:09:30;40.00;9.10
11142;DHT22;5625;50.122;19.864;2022-08-19T11:12:02;40.20;4.10
11142;DHT22;5625;50.122;19.864;2022-08-19T11:14:31;40.20;1.00
11142;DHT22;5625;50.122;19.864;2022-08-19T11:17:00;40.20;1.00
11142;DHT22;5625;50.122;19.864;2022-08-19T11:19:28;40.10;1.00
11142;DHT22;5625;50.122;19.864;2022-08-19T11:21:57;40.20;1.00
11142;DHT22;5625;50.122;19.864;2022-08-19T11:24:30;40.00;1.00
11142;DHT22;5625;50.122;19.864;2022-08-19T11:27:06;40.10;1.00
11142;DHT22;5625;50.122;19.864;2022-08-19T11:29:37;40.00;1.00
11142;DHT22;5625;50.122;19.864;2022-08-19T11:32:07;39.60;1.00
11142;DHT22;5625;50.122;19.864;2022-08-19T11:34:36;39.80;1.00
11142;DHT22;5625;50.122;19.864;2022-08-19T11:37:05;39.70;1.00
11142;DHT22;5625;50.122;19.864;2022-08-19T11:39:34;39.40;1.00
11142;DHT22;5625;50.122;19.864;2022-08-19T11:42:06;39.40;1.00
11142;DHT22;5625;50.122;19.864;2022-08-19T11:44:54;39.50;1.00
11142;DHT22;5625;50.122;19.864;2022-08-19T11:47:23;39.40;1.00
11142;DHT22;5625;50.122;19.864;2022-08-19T11:49:51;39.40;1.00
11142;DHT22;5625;50.122;19.864;2022-08-19T11:52:20;39.50;1.00
11142;DHT22;5625;50.122;19.864;2022-08-19T11:54:48;39.60;1.00
11142;DHT22;5625;50.122;19.864;2022-08-19T11:57:17;39.30;1.00
11142;DHT22;5625;50.122;19.864;2022-08-19T11:59:50;39.20;1.00
11142;DHT22;5625;50.122;19.864;2022-08-19T12:02:19;38.90;1.00
11142;DHT22;5625;50.122;19.864;2022-08-19T12:04:48;38.40;1.00
11142;DHT22;5625;50.122;19.864;2022-08-19T12:07:16;38.60;1.00
11142;DHT22;5625;50.122;19.864;2022-08-19T12:09:44;38.90;1.00
11142;DHT22;5625;50.122;19.864;2022-08-19T12:12:14;38.90;1.00
11142;DHT22;5625;50.122;19.864;2022-08-19T12:14:44;38.80;1.00
11142;DHT22;5625;50.122;19.864;2022-08-19T12:17:13;38.70;1.00
11142;DHT22;5625;50.122;19.864;2022-08-19T12:19:41;38.70;1.00
11142;DHT22;5625;50.122;19.864;2022-08-19T12:22:09;38.60;1.00
11142;DHT22;5625;50.122;19.864;2022-08-19T12:24:37;38.60;1.00
11142;DHT22;5625;50.122;19.864;2022-08-19T12:27:05;38.50;1.00
11142;DHT22;5625;50.122;19.864;2022-08-19T12:29:38;38.60;1.00
11142;DHT22;5625;50.122;19.864;2022-08-19T12:32:09;38.70;1.00
11142;DHT22;5625;50.122;19.864;2022-08-19T12:34:38;38.70;1.00
11142;DHT22;5625;50.122;19.864;2022-08-19T12:37:06;38.70;1.00
11142;DHT22;5625;50.122;19.864;2022-08-19T12:39:36;38.40;1.00
11142;DHT22;5625;50.122;19.864;2022-08-19T12:42:05;38.30;1.00
11142;DHT22;5625;50.122;19.864;2022-08-19T12:44:34;38.40;1.00
11142;DHT22;5625;50.122;19.864;2022-08-19T12:47:03;38.50;1.00
11142;DHT22;5625;50.122;19.864;2022-08-19T12:49:36;38.40;1.00
11142;DHT22;5625;50.122;19.864;2022-08-19T12:52:22;38.20;1.00
11142;DHT22;5625;50.122;19.864;2022-08-19T12:54:50;37.90;1.00
11142;DHT22;5625;50.122;19.864;2022-08-19T12:57:21;37.80;1.00
11142;DHT22;5625;50.122;19.864;2022-08-19T12:59:59;37.80;1.00
11142;DHT22;5625;50.122;19.864;2022-08-19T13:02:31;38.00;7.00
11142;DHT22;5625;50.122;19.864;2022-08-19T13:05:13;37.90;16.70
11142;DHT22;5625;50.122;19.864;2022-08-19T13:07:42;37.80;13.60
11142;DHT22;5625;50.122;19.864;2022-08-19T13:10:13;37.80;5.70
11142;DHT22;5625;50.122;19.864;2022-08-19T13:12:43;37.70;10.10
11142;DHT22;5625;50.122;19.864;2022-08-19T13:15:11;37.90;16.30
11142;DHT22;5625;50.122;19.864;2022-08-19T13:17:41;37.70;17.60
11142;DHT22;5625;50.122;19.864;2022-08-19T13:20:11;37.40;1.00
11142;DHT22;5625;50.122;19.864;2022-08-19T13:22:39;37.30;1.80
11142;DHT22;5625;50.122;19.864;2022-08-19T13:25:08;37.10;1.00
11142;DHT22;5625;50.122;19.864;2022-08-19T13:27:37;37.20;1.00
11142;DHT22;5625;50.122;19.864;2022-08-19T13:30:07;37.40;1.00
11142;DHT22;5625;50.122;19.864;2022-08-19T13:32:53;37.50;1.00
11142;DHT22;5625;50.122;19.864;2022-08-19T13:35:45;37.30;1.00
11142;DHT22;5625;50.122;19.864;2022-08-19T13:38:16;37.10;1.00
11142;DHT22;5625;50.122;19.864;2022-08-19T13:40:44;37.00;1.00
11142;DHT22;5625;50.122;19.864;2022-08-19T13:43:13;37.00;1.00
11142;DHT22;5625;50.122;19.864;2022-08-19T13:45:50;36.70;1.00
11142;DHT22;5625;50.122;19.864;2022-08-19T13:48:24;36.70;1.00
11142;DHT22;5625;50.122;19.864;2022-08-19T13:50:55;36.80;1.00
11142;DHT22;5625;50.122;19.864;2022-08-19T13:53:23;36.80;1.00
11142;DHT22;5625;50.122;19.864;2022-08-19T13:55:52;36.80;1.00
11142;DHT22;5625;50.122;19.864;2022-08-19T13:58:20;36.80;1.00
11142;DHT22;5625;50.122;19.864;2022-08-19T14:00:49;36.70;1.00
11142;DHT22;5625;50.122;19.864;2022-08-19T14:03:17;36.70;1.00
11142;DHT22;5625;50.122;19.864;2022-08-19T14:05:45;36.70;1.00
11142;DHT22;5625;50.122;19.864;2022-08-19T14:08:16;36.70;1.00
11142;DHT22;5625;50.122;19.864;2022-08-19T14:10:45;36.50;1.00
11142;DHT22;5625;50.122;19.864;2022-08-19T14:13:14;36.40;1.00
11142;DHT22;5625;50.122;19.864;2022-08-19T14:15:44;36.30;1.00
11142;DHT22;5625;50.122;19.864;2022-08-19T14:18:14;36.20;1.00
11142;DHT22;5625;50.122;19.864;2022-08-19T14:20:42;36.30;15.10
11142;DHT22;5625;50.122;19.864;2022-08-19T14:23:11;36.20;1.50
11142;DHT22;5625;50.122;19.864;2022-08-19T14:25:42;36.20;9.30
11142;DHT22;5625;50.122;19.864;2022-08-19T14:28:11;35.90;8.90
11142;DHT22;5625;50.122;19.864;2022-08-19T14:30:39;35.90;9.40
11142;DHT22;5625;50.122;19.864;2022-08-19T14:33:07;35.80;10.70
11142;DHT22;5625;50.122;19.864;2022-08-19T14:35:36;35.90;12.50
11142;DHT22;5625;50.122;19.864;2022-08-19T14:38:05;35.90;16.00
11142;DHT22;5625;50.122;19.864;2022-08-19T14:40:43;35.80;22.10
11142;DHT22;5625;50.122;19.864;2022-08-19T14:43:12;35.80;29.90
11142;DHT22;5625;50.122;19.864;2022-08-19T14:45:44;35.70;32.80
11142;DHT22;5625;50.122;19.864;2022-08-19T14:48:12;35.50;10.70
11142;DHT22;5625;50.122;19.864;2022-08-19T14:50:45;35.40;17.70
11142;DHT22;5625;50.122;19.864;2022-08-19T14:53:13;35.30;3.70
11142;DHT22;5625;50.122;19.864;2022-08-19T14:55:45;35.20;10.70
11142;DHT22;5625;50.122;19.864;2022-08-19T14:58:14;35.20;18.80
11142;DHT22;5625;50.122;19.864;2022-08-19T15:00:56;35.20;9.90
11142;DHT22;5625;50.122;19.864;2022-08-19T15:03:25;35.10;1.00
11142;DHT22;5625;50.122;19.864;2022-08-19T15:05:55;35.00;2.50
11142;DHT22;5625;50.122;19.864;2022-08-19T15:08:24;34.90;10.10
11142;DHT22;5625;50.122;19.864;2022-08-19T15:10:55;34.90;1.00
11142;DHT22;5625;50.122;19.864;2022-08-19T15:13:24;34.90;12.00
11142;DHT22;5625;50.122;19.864;2022-08-19T15:15:53;34.90;12.80
11142;DHT22;5625;50.122;19.864;2022-08-19T15:18:21;34.90;6.40
11142;DHT22;5625;50.122;19.864;2022-08-19T15:20:49;34.80;6.20
11142;DHT22;5625;50.122;19.864;2022-08-19T15:23:19;34.70;6.20
11142;DHT22;5625;50.122;19.864;2022-08-19T15:25:48;34.80;9.90
11142;DHT22;5625;50.122;19.864;2022-08-19T15:28:22;34.70;14.20
11142;DHT22;5625;50.122;19.864;2022-08-19T15:30:50;34.70;25.60
11142;DHT22;5625;50.122;19.864;2022-08-19T15:33:18;34.60;35.10
11142;DHT22;5625;50.122;19.864;2022-08-19T15:35:47;34.60;55.10
11142;DHT22;5625;50.122;19.864;2022-08-19T15:38:17;34.60;69.00
11142;DHT22;5625;50.122;19.864;2022-08-19T15:40:48;34.60;67.10
11142;DHT22;5625;50.122;19.864;2022-08-19T15:43:18;34.60;69.30
11142;DHT22;5625;50.122;19.864;2022-08-19T15:45:49;34.50;84.90
11142;DHT22;5625;50.122;19.864;2022-08-19T15:48:17;34.50;93.20
11142;DHT22;5625;50.122;19.864;2022-08-19T15:50:45;34.50;97.10
11142;DHT22;5625;50.122;19.864;2022-08-19T15:53:13;34.50;99.90
11142;DHT22;5625;50.122;19.864;2022-08-19T15:55:43;34.50;99.90
11142;DHT22;5625;50.122;19.864;2022-08-19T15:58:13;34.40;99.90
11142;DHT22;5625;50.122;19.864;2022-08-19T16:01:03;34.30;99.90
11142;DHT22;5625;50.122;19.864;2022-08-19T16:03:53;34.20;99.90